Time;durP1;ratioP1;P1;durP2;ratioP2;P2;SDS_P1;SDS_P2;PMS_P1;PMS_P2;Temp;Humidity;BMP_temperature;BMP_pressure;BME280_temperature;BME280_humidity;BME280_pressure;Samples;Min_cycle;Max_cycle;Signal;HPM_P1;HPM_P2
2022/05/28 05:41:25;;;;;;;19.80;6.30;;;;;;;20.04;60.21;93778.91;5104248;28;20052;-75
2022/05/28 05:43:51;;;;;;;17.38;5.93;;;;;;;20.27;59.99;93777.91;5104311;28;20333;-75
2022/05/28 05:46:16;;;;;;;13.25;5.47;;;;;;;20.48;58.77;93779.22;5104024;28;20027;-76
2022/05/28 05:48:42;;;;;;;22.95;7.28;;;;;;;20.63;57.29;93776.22;5104268;28;20095;-75
2022/05/28 05:51:11;;;;;;;21.92;4.63;;;;;;;20.79;55.92;93786.75;5104274;28;20103;-75
2022/05/28 05:53:36;;;;;;;17.85;4.13;;;;;;;20.90;57.54;93792.22;5104083;28;20024;-75
2022/05/28 05:56:03;;;;;;;21.50;5.70;;;;;;;20.94;57.97;93781.41;5103815;28;20024;-76
2022/05/28 05:58:28;;;;;;;19.85;5.45;;;;;;;21.00;57.11;93777.97;5103038;28;20043;-76
2022/05/28 06:00:54;;;;;;;14.52;4.82;;;;;;;21.10;56.55;93762.13;5104133;28;20218;-75
2022/05/28 06:03:20;;;;;;;17.90;5.10;;;;;;;21.19;56.66;93765.25;5103937;28;20012;-75
2022/05/28 06:05:45;;;;;;;16.13;5.03;;;;;;;21.26;56.46;93769.91;5103828;28;20051;-74
2022/05/28 06:08:11;;;;;;;14.50;5.75;;;;;;;21.27;56.01;93776.88;5103956;28;20053;-74
2022/05/28 06:10:37;;;;;;;21.33;5.32;;;;;;;21.23;55.82;93772.25;5103619;28;20058;-74
2022/05/28 06:13:02;;;;;;;16.52;5.10;;;;;;;21.35;56.47;93767.59;5103804;28;20215;-75
2022/05/28 06:15:28;;;;;;;26.83;5.53;;;;;;;21.46;56.53;93757.59;5103728;28;20031;-75
2022/05/28 06:17:53;;;;;;;19.13;5.53;;;;;;;21.53;56.46;93754.13;5103747;28;20318;-75
2022/05/28 06:20:19;;;;;;;16.00;5.30;;;;;;;21.61;56.20;93753.75;5103639;28;20043;-75
2022/05/28 06:22:45;;;;;;;20.38;6.82;;;;;;;21.73;55.93;93751.81;5103361;28;20016;-73
2022/05/28 06:25:11;;;;;;;17.40;5.70;;;;;;;21.83;56.61;93759.97;5103380;28;20043;-73
2022/05/28 06:27:36;;;;;;;14.43;5.95;;;;;;;21.96;55.96;93752.22;5103333;28;20069;-73
2022/05/28 06:30:04;;;;;;;18.25;6.05;;;;;;;22.07;55.06;93746.78;5103343;28;20015;-74
2022/05/28 06:32:29;;;;;;;14.88;4.68;;;;;;;22.22;54.46;93742.88;5103454;28;20024;-74
2022/05/28 06:34:55;;;;;;;18.65;5.82;;;;;;;22.36;53.74;93741.34;5103453;28;20082;-74
2022/05/28 06:37:21;;;;;;;14.75;5.97;;;;;;;22.46;53.43;93750.66;5103509;28;20019;-73
2022/05/28 06:39:46;;;;;;;15.75;5.70;;;;;;;22.55;53.55;93740.94;5102918;28;20051;-73
2022/05/28 06:42:12;;;;;;;12.13;5.22;;;;;;;22.69;53.93;93728.47;5103314;28;20016;-73
2022/05/28 06:44:37;;;;;;;14.23;5.75;;;;;;;22.82;53.68;93726.88;5103341;28;20046;-73
2022/05/28 06:47:03;;;;;;;19.08;6.00;;;;;;;22.88;53.20;93725.31;5103015;28;20018;-73
2022/05/28 06:49:32;;;;;;;16.08;5.40;;;;;;;22.97;53.16;93714.78;5102983;28;20077;-72
2022/05/28 06:51:57;;;;;;;12.75;4.22;;;;;;;23.02;52.96;93706.25;5103014;28;20313;-73
2022/05/28 06:54:22;;;;;;;12.65;4.25;;;;;;;23.11;53.20;93703.09;5103264;28;20023;-72
2022/05/28 06:56:48;;;;;;;14.55;3.58;;;;;;;23.20;53.50;93698.00;5103074;28;20024;-73
2022/05/28 06:59:13;;;;;;;13.18;4.13;;;;;;;23.33;54.49;93692.88;5102800;28;20333;-74
2022/05/28 07:01:40;;;;;;;11.20;4.47;;;;;;;23.42;53.29;93685.03;5102938;28;20095;-73
2022/05/28 07:04:05;;;;;;;17.63;5.50;;;;;;;23.58;51.86;93678.31;5102943;28;20031;-73
2022/05/28 07:06:32;;;;;;;15.35;3.67;;;;;;;23.69;49.86;93665.41;5102952;28;20024;-74
2022/05/28 07:08:58;;;;;;;19.95;5.53;;;;;;;23.88;48.20;93674.22;5102446;28;20020;-74
2022/05/28 07:11:24;;;;;;;11.80;4.70;;;;;;;24.05;46.83;93670.56;5102835;28;20256;-74
2022/05/28 07:13:49;;;;;;;11.77;4.60;;;;;;;24.22;44.93;93664.19;5102768;28;20020;-74
2022/05/28 07:16:15;;;;;;;11.65;3.67;;;;;;;24.39;43.96;93656.22;5102943;28;20417;-74
2022/05/28 07:18:42;;;;;;;9.07;4.50;;;;;;;24.46;42.69;93650.69;5102716;28;20338;-74
2022/05/28 07:21:09;;;;;;;9.70;4.10;;;;;;;24.59;42.65;93643.56;5102814;28;20054;-73
2022/05/28 07:23:36;;;;;;;8.18;3.75;;;;;;;24.74;42.88;93637.94;5102664;28;20028;-74
2022/05/28 07:26:16;;;;;;;15.65;4.05;;;;;;;24.85;42.50;93643.25;5103207;28;20024;-74
2022/05/28 07:28:44;;;;;;;13.45;3.63;;;;;;;24.90;42.23;93649.00;5102739;28;20179;-73
2022/05/28 07:31:11;;;;;;;10.23;4.05;;;;;;;25.01;42.33;93651.59;5102639;28;20024;-73
2022/05/28 07:33:39;;;;;;;26.70;4.57;;;;;;;24.96;44.82;93652.81;5102622;28;20081;-73
2022/05/28 07:36:07;;;;;;;16.27;4.13;;;;;;;24.95;44.51;93654.03;5102686;28;20027;-74
2022/05/28 07:38:34;;;;;;;10.52;4.78;;;;;;;25.08;43.86;93648.00;5102872;28;20069;-74
2022/05/28 07:41:05;;;;;;;11.90;3.50;;;;;;;25.18;43.87;93647.84;5102358;28;20048;-74
2022/05/28 07:43:32;;;;;;;11.25;3.80;;;;;;;25.25;43.24;93644.28;5102443;28;20023;-74
2022/05/28 07:45:57;;;;;;;16.33;3.90;;;;;;;25.32;44.34;93643.38;5102480;28;20077;-73
2022/05/28 07:48:23;;;;;;;11.52;4.13;;;;;;;25.48;44.01;93645.50;5102470;28;20020;-72
2022/05/28 07:50:48;;;;;;;15.55;4.35;;;;;;;25.47;44.04;93650.19;5102258;28;20024;-73
2022/05/28 07:53:14;;;;;;;18.00;4.68;;;;;;;25.38;44.16;93648.00;5102306;28;20015;-72
2022/05/28 07:55:39;;;;;;;12.23;3.47;;;;;;;25.46;44.21;93648.63;5102392;28;20023;-73
2022/05/28 07:58:11;;;;;;;15.30;4.00;;;;;;;25.43;43.86;93646.75;5102150;28;20087;-73
2022/05/28 08:00:42;;;;;;;11.68;5.07;;;;;;;25.58;44.39;93645.31;5102574;28;20035;-73
2022/05/28 08:03:08;;;;;;;10.52;4.57;;;;;;;25.63;43.28;93642.13;5102470;28;20020;-73
2022/05/28 08:05:36;;;;;;;10.98;3.75;;;;;;;25.77;42.85;93640.38;5102529;28;20016;-73
2022/05/28 08:08:02;;;;;;;10.00;4.65;;;;;;;25.89;42.26;93630.78;5102238;28;20027;-73
2022/05/28 08:10:28;;;;;;;11.75;4.05;;;;;;;25.90;42.23;93643.28;5102431;28;20311;-73
2022/05/28 08:12:53;;;;;;;17.42;4.70;;;;;;;26.06;41.72;93646.13;5102463;28;20023;-73
2022/05/28 08:15:19;;;;;;;15.00;4.15;;;;;;;26.17;41.53;93630.31;5102319;28;20016;-73
2022/05/28 08:17:44;;;;;;;15.02;4.88;;;;;;;26.35;40.49;93629.97;5101926;28;20016;-73
2022/05/28 08:20:11;;;;;;;11.70;3.90;;;;;;;26.49;40.81;93636.38;5101990;28;20024;-73
2022/05/28 08:25:20;;;;;;;16.58;4.13;;;;;;;26.65;40.17;93631.00;5105741;28;20023;-73
2022/05/28 08:27:45;;;;;;;12.80;4.10;;;;;;;26.73;39.63;93637.09;5105922;28;20095;-73
2022/05/28 08:30:11;;;;;;;15.13;4.55;;;;;;;26.74;40.26;93635.88;5105607;28;20015;-76
2022/05/28 08:32:37;;;;;;;11.05;3.90;;;;;;;26.65;40.47;93636.47;5105775;28;20027;-73
2022/05/28 08:35:03;;;;;;;19.40;4.70;;;;;;;26.65;39.77;93638.44;5105752;28;20338;-74
2022/05/28 08:37:28;;;;;;;13.02;4.85;;;;;;;26.64;39.90;93634.16;5105683;28;20290;-74
2022/05/28 08:39:53;;;;;;;16.75;4.75;;;;;;;26.65;39.81;93622.03;5105363;28;20031;-74
2022/05/28 08:42:23;;;;;;;15.65;3.80;;;;;;;26.67;39.18;93639.53;5105279;28;20087;-74
2022/05/28 08:44:50;;;;;;;16.60;4.03;;;;;;;26.65;39.67;93633.72;5105326;28;20023;-73
2022/05/28 08:47:28;;;;;;;16.15;3.83;;;;;;;26.59;39.97;93633.44;5105504;28;20184;-74
2022/05/28 08:49:57;;;;;;;12.90;3.75;;;;;;;26.48;39.98;93624.69;5105377;28;20018;-73
2022/05/28 08:52:32;;;;;;;15.75;4.07;;;;;;;26.49;39.84;93626.19;5105233;28;20069;-74
2022/05/28 08:55:11;;;;;;;7.90;3.63;;;;;;;26.57;38.99;93624.09;5105508;28;20038;-74
2022/05/28 08:57:59;;;;;;;23.75;4.88;;;;;;;26.52;39.52;93630.84;5105169;28;20019;-74
2022/05/28 09:00:54;;;;;;;11.75;4.07;;;;;;;26.63;39.26;93621.69;5105269;28;20039;-74
2022/05/28 09:03:24;;;;;;;11.15;4.47;;;;;;;26.72;39.15;93619.13;5104892;28;20031;-73
2022/05/28 09:06:05;;;;;;;12.85;4.18;;;;;;;26.88;39.61;93624.66;5104830;28;20035;-73
2022/05/28 09:08:45;;;;;;;11.82;4.95;;;;;;;27.10;38.97;93626.94;5104976;28;20022;-73
2022/05/28 09:11:15;;;;;;;21.85;5.03;;;;;;;27.27;38.16;93625.03;5105007;28;20083;-73
2022/05/28 09:13:49;;;;;;;13.50;3.75;;;;;;;27.30;38.42;93624.19;5104922;28;20334;-73
2022/05/28 09:16:28;;;;;;;9.85;4.50;;;;;;;27.45;38.16;93614.44;5104755;28;20175;-73
2022/05/28 09:19:00;;;;;;;10.25;4.03;;;;;;;27.61;37.58;93621.88;5104755;28;20032;-73
2022/05/28 09:21:25;;;;;;;11.70;3.78;;;;;;;27.74;37.19;93609.03;5104935;28;20028;-73
2022/05/28 09:24:01;;;;;;;12.60;4.60;;;;;;;27.90;37.53;93611.00;5104764;28;20026;-73
2022/05/28 09:26:41;;;;;;;14.40;3.95;;;;;;;28.07;36.96;93602.75;5104548;28;20030;-73
2022/05/28 09:29:22;;;;;;;12.45;4.72;;;;;;;28.16;37.10;93600.94;5104635;28;20032;-73
2022/05/28 09:32:13;;;;;;;25.95;5.88;;;;;;;28.31;37.16;93595.06;5104505;28;20032;-73
2022/05/28 09:35:19;;;;;;;15.27;3.85;;;;;;;28.30;35.49;93593.56;5104372;28;20038;-73
2022/05/28 09:38:04;;;;;;;24.95;4.75;;;;;;;28.24;36.71;93589.81;5042448;28;20025;-74
2022/05/28 09:40:32;;;;;;;13.20;4.20;;;;;;;28.31;37.78;93584.91;5101763;28;20109;-73
2022/05/28 09:43:06;;;;;;;15.65;4.38;;;;;;;28.27;36.64;93577.97;5104160;28;20073;-73
2022/05/28 09:45:58;;;;;;;13.18;4.90;;;;;;;28.38;37.41;93567.47;5104672;28;20112;-73
2022/05/28 09:48:27;;;;;;;12.18;4.82;;;;;;;28.61;36.92;93564.47;5086198;28;20085;-73
2022/05/28 09:50:53;;;;;;;14.02;3.95;;;;;;;28.80;35.98;93571.00;5104104;28;20020;-73
2022/05/28 09:56:22;;;;;;;15.10;5.28;;;;;;;28.96;37.02;93566.59;5104118;28;20022;-73
2022/05/28 09:58:48;;;;;;;11.55;4.22;;;;;;;29.19;35.20;93566.31;5103722;28;20326;-74
2022/05/28 10:01:23;;;;;;;9.57;4.50;;;;;;;29.34;34.86;93565.88;5103913;28;20031;-74
2022/05/28 10:06:50;;;;;;;12.02;4.60;;;;;;;29.44;34.97;93556.53;5103919;28;20333;-74
2022/05/28 10:09:21;;;;;;;15.77;4.50;;;;;;;29.56;34.51;93549.47;5103760;28;20020;-76
2022/05/28 10:12:16;;;;;;;13.55;5.05;;;;;;;29.58;33.33;93552.53;5103586;28;20039;-75
2022/05/28 10:14:41;;;;;;;13.35;5.25;;;;;;;29.24;34.63;93553.25;5097917;28;20019;-75
2022/05/28 10:17:07;;;;;;;14.55;4.72;;;;;;;29.18;34.64;93542.81;5103686;28;20042;-75
2022/05/28 10:19:43;;;;;;;17.27;5.30;;;;;;;29.23;35.81;93546.22;5103523;28;20020;-75
2022/05/28 10:22:17;;;;;;;13.35;4.60;;;;;;;29.30;35.85;93535.78;5103718;28;20243;-74
2022/05/28 10:25:09;;;;;;;17.80;4.90;;;;;;;29.43;35.51;93532.25;5103437;28;20091;-75
2022/05/28 10:27:52;;;;;;;16.63;4.57;;;;;;;29.47;35.39;93532.91;5103841;28;20050;-75
2022/05/28 10:30:24;;;;;;;14.15;5.20;;;;;;;29.49;35.37;93525.75;5103546;28;20047;-75
2022/05/28 10:32:51;;;;;;;29.42;5.82;;;;;;;29.45;35.86;93530.59;5103282;28;20020;-75
2022/05/28 10:35:21;;;;;;;13.90;5.78;;;;;;;29.40;35.37;93518.19;5103291;28;20023;-75
2022/05/28 10:37:47;;;;;;;23.00;5.45;;;;;;;29.30;35.33;93513.81;5103253;28;20020;-75
2022/05/28 10:40:20;;;;;;;20.10;5.57;;;;;;;29.24;36.42;93521.06;5102861;28;20259;-74
2022/05/28 10:42:46;;;;;;;19.77;5.35;;;;;;;29.28;36.38;93521.72;5103274;28;20027;-75
2022/05/28 10:45:16;;;;;;;17.80;4.63;;;;;;;29.35;36.25;93521.50;5102937;28;20036;-75
2022/05/28 10:48:02;;;;;;;17.27;4.32;;;;;;;29.37;36.18;93516.34;5103065;28;20332;-75
2022/05/28 10:50:44;;;;;;;18.80;5.35;;;;;;;29.23;36.65;93519.56;5085336;28;20024;-75
2022/05/28 10:53:21;;;;;;;12.18;4.30;;;;;;;29.37;35.38;93519.09;5103328;28;20023;-75
2022/05/28 10:56:05;;;;;;;15.07;4.85;;;;;;;29.32;35.82;93510.66;5103182;28;20040;-74
2022/05/28 10:58:59;;;;;;;15.52;4.72;;;;;;;29.39;36.15;93516.69;5103114;28;20035;-74
2022/05/28 11:01:36;;;;;;;21.27;5.22;;;;;;;29.49;36.09;93519.50;5102956;28;20027;-74
2022/05/28 11:04:14;;;;;;;25.85;6.03;;;;;;;29.51;36.14;93514.31;5085243;28;20055;-73
2022/05/28 11:06:57;;;;;;;15.20;4.32;;;;;;;29.62;36.08;93511.25;5102966;28;20319;-74
2022/05/28 11:09:41;;;;;;;17.38;4.88;;;;;;;29.85;35.92;93505.34;5102746;28;20299;-74
2022/05/28 11:12:31;;;;;;;16.08;5.00;;;;;;;29.84;34.62;93498.34;5084858;28;20091;-73
2022/05/28 11:15:24;;;;;;;14.65;4.63;;;;;;;29.84;35.36;93494.81;5103019;28;20034;-74
2022/05/28 11:18:17;;;;;;;13.48;4.10;;;;;;;29.84;34.51;93492.84;5102746;28;20025;-73
2022/05/28 11:21:18;;;;;;;18.23;4.85;;;;;;;29.90;34.38;93487.53;5102793;28;20242;-74
2022/05/28 11:24:22;;;;;;;15.85;5.55;;;;;;;29.92;33.47;93479.59;5102548;28;20104;-73
2022/05/28 11:27:06;;;;;;;15.77;4.82;;;;;;;29.95;33.71;93475.97;5102607;28;20020;-74
2022/05/28 11:29:46;;;;;;;18.83;4.43;;;;;;;30.06;33.35;93470.84;5102672;28;20020;-73
2022/05/28 11:32:20;;;;;;;8.50;4.05;;;;;;;30.10;33.24;93476.97;5102740;28;20091;-75
2022/05/28 11:35:09;;;;;;;14.90;4.28;;;;;;;29.99;32.96;93468.38;5102666;28;20020;-75
2022/05/28 11:37:38;;;;;;;12.25;4.50;;;;;;;29.89;32.70;93470.28;5102588;28;20031;-75
2022/05/28 11:40:34;;;;;;;17.00;4.85;;;;;;;29.65;33.21;93466.41;5102473;28;20297;-75
2022/05/28 11:43:04;;;;;;;17.35;4.78;;;;;;;29.40;33.74;93468.78;5101869;28;20028;-75
2022/05/28 11:45:41;;;;;;;12.07;4.10;;;;;;;29.35;33.71;93472.09;5102569;28;20028;-74
2022/05/28 11:48:22;;;;;;;19.73;4.90;;;;;;;29.20;34.37;93474.53;5102334;28;20024;-74
2022/05/28 11:53:47;;;;;;;14.80;4.20;;;;;;;29.00;33.53;93469.28;5102630;28;20085;-74
2022/05/28 11:56:28;;;;;;;10.60;3.80;;;;;;;28.83;34.48;93462.38;5103168;28;20020;-74
2022/05/28 11:59:03;;;;;;;21.92;5.20;;;;;;;28.70;34.63;93462.41;5106100;28;20027;-74
2022/05/28 12:01:42;;;;;;;16.08;5.70;;;;;;;28.55;34.62;93464.78;5105877;28;20234;-75
2022/05/28 12:04:09;;;;;;;17.95;5.70;;;;;;;28.49;35.17;93458.28;5105958;28;20223;-71
2022/05/28 12:06:39;;;;;;;25.02;4.40;;;;;;;28.33;36.42;93458.38;5104795;28;20195;-75
2022/05/28 12:09:20;;;;;;;62.08;12.77;;;;;;;28.26;37.05;93453.13;5106109;28;20031;-74
2022/05/28 12:11:59;;;;;;;21.88;6.85;;;;;;;28.19;36.81;93454.09;5105976;28;20028;-74
2022/05/28 12:14:27;;;;;;;21.45;5.20;;;;;;;28.17;37.44;93448.28;5087827;28;20024;-75
2022/05/28 12:17:21;;;;;;;18.67;4.18;;;;;;;28.10;37.63;93457.47;5105849;28;20039;-76
2022/05/28 12:19:50;;;;;;;18.45;4.47;;;;;;;27.91;38.19;93447.47;5105563;28;20085;-76
2022/05/28 12:22:23;;;;;;;15.60;4.15;;;;;;;27.67;38.90;93447.69;5105466;28;20027;-75
2022/05/28 12:25:05;;;;;;;17.35;5.00;;;;;;;27.47;39.20;93436.88;5104936;28;20024;-75
2022/05/28 12:27:42;;;;;;;18.65;4.57;;;;;;;27.29;40.88;93447.53;5105892;28;20081;-76
2022/05/28 12:30:21;;;;;;;13.90;4.75;;;;;;;27.15;43.14;93441.22;5105454;28;20099;-75
2022/05/28 12:32:49;;;;;;;21.17;6.90;;;;;;;26.91;43.65;93440.63;5103879;28;20027;-75
2022/05/28 12:35:14;;;;;;;20.58;5.60;;;;;;;26.76;44.95;93439.41;5103701;28;20065;-75
2022/05/28 12:37:42;;;;;;;21.17;4.97;;;;;;;26.59;45.59;93442.13;5103791;28;20024;-75
2022/05/28 12:40:26;;;;;;;19.27;5.28;;;;;;;26.44;45.95;93443.63;5103429;28;20043;-75
2022/05/28 12:42:53;;;;;;;13.45;5.43;;;;;;;26.29;47.05;93453.31;5103645;28;20230;-76
2022/05/28 12:45:52;;;;;;;24.25;6.50;;;;;;;26.12;46.31;93455.25;5103559;28;20026;-75
2022/05/28 12:48:26;;;;;;;16.20;5.65;;;;;;;25.94;47.24;93456.38;5071709;28;20066;-75
2022/05/28 12:51:03;;;;;;;11.75;5.20;;;;;;;25.83;47.36;93444.91;5105562;28;20024;-75
2022/05/28 12:53:35;;;;;;;15.75;5.30;;;;;;;25.71;49.06;93457.19;5105416;28;20024;-75
2022/05/28 12:56:08;;;;;;;26.42;7.22;;;;;;;25.57;50.72;93444.59;5105454;28;20314;-75
2022/05/28 12:58:36;;;;;;;31.48;7.90;;;;;;;25.42;50.84;93446.84;5105467;28;20048;-75
2022/05/28 13:01:05;;;;;;;24.98;6.40;;;;;;;25.26;51.62;93454.13;5105284;28;20024;-75
2022/05/28 13:03:41;;;;;;;21.95;6.25;;;;;;;25.13;53.23;93454.69;5105424;28;20051;-75
2022/05/28 13:06:21;;;;;;;24.58;5.80;;;;;;;25.01;54.02;93461.53;5105119;28;20023;-75
2022/05/28 13:08:58;;;;;;;16.92;6.00;;;;;;;24.88;56.85;93457.84;5104707;28;20089;-75
2022/05/28 13:11:48;;;;;;;23.20;6.30;;;;;;;24.67;56.12;93463.63;5104811;28;20327;-76
2022/05/28 13:14:33;;;;;;;18.75;6.78;;;;;;;24.51;57.81;93459.59;5075631;28;20103;-75
2022/05/28 13:17:13;;;;;;;18.17;6.60;;;;;;;24.39;58.27;93465.56;5104595;28;20035;-75
2022/05/28 13:20:00;;;;;;;23.35;6.45;;;;;;;24.25;53.84;93476.66;5104777;28;20051;-75
2022/05/28 13:23:02;;;;;;;18.67;5.25;;;;;;;24.06;52.32;93473.41;5104781;28;20048;-76
2022/05/28 13:25:40;;;;;;;;;;;;;;;23.86;51.58;93475.97;5105137;28;20020;-76
2022/05/28 13:28:31;;;;;;;21.85;4.88;;;;;;;23.56;54.39;93471.97;5104600;28;19926;-76
2022/05/28 13:31:02;;;;;;;19.20;4.85;;;;;;;23.19;52.18;93464.59;5104570;28;20054;-75
2022/05/28 13:33:35;;;;;;;23.60;5.30;;;;;;;23.08;53.20;93481.00;5104166;28;20020;-76
2022/05/28 13:36:04;;;;;;;18.17;6.65;;;;;;;22.96;55.78;93490.41;5104573;28;20099;-76
2022/05/28 13:38:34;;;;;;;21.13;6.45;;;;;;;22.90;57.06;93499.34;5103124;28;20032;-75
2022/05/28 13:41:09;;;;;;;27.15;5.25;;;;;;;22.82;55.15;93501.38;5104353;28;20089;-76
2022/05/28 13:43:41;;;;;;;20.00;5.40;;;;;;;22.72;56.73;93518.53;5104691;28;20035;-76
2022/05/28 13:46:11;;;;;;;17.50;5.07;;;;;;;22.49;54.99;93519.84;5104440;28;20051;-76
2022/05/28 13:48:45;;;;;;;18.58;5.40;;;;;;;22.14;55.91;93521.50;5104193;28;20252;-75
2022/05/28 13:51:11;;;;;;;18.98;5.25;;;;;;;22.00;57.38;93530.50;5104192;28;20614;-76
2022/05/28 13:53:40;;;;;;;22.15;5.70;;;;;;;21.89;58.24;93535.19;5104194;28;20012;-76
2022/05/28 13:56:08;;;;;;;23.88;6.00;;;;;;;21.83;58.88;93536.75;5104368;28;20061;-76
2022/05/28 13:58:41;;;;;;;17.85;6.95;;;;;;;21.88;59.02;93544.50;5104152;28;20024;-75
2022/05/28 14:01:10;;;;;;;22.35;5.70;;;;;;;21.95;60.47;93546.41;5104097;28;20032;-76
2022/05/28 14:03:39;;;;;;;32.47;6.07;;;;;;;22.01;63.00;93552.97;5104239;28;20027;-76
2022/05/28 14:06:17;;;;;;;26.27;7.53;;;;;;;21.98;62.38;93559.97;5103962;28;20028;-76
2022/05/28 14:08:45;;;;;;;25.13;5.68;;;;;;;21.85;61.00;93561.53;5103994;28;20015;-75
2022/05/28 14:11:29;;;;;;;18.73;6.63;;;;;;;21.59;64.36;93576.31;5103888;28;20023;-75
2022/05/28 14:14:04;;;;;;;16.50;6.20;;;;;;;21.17;66.28;93575.94;5103771;28;20027;-75
2022/05/28 14:16:38;;;;;;;19.65;6.47;;;;;;;20.91;67.32;93581.72;5103742;28;20023;-75
2022/05/28 14:19:07;;;;;;;20.27;5.63;;;;;;;20.70;65.73;93582.44;5103031;28;20085;-75
2022/05/28 14:21:39;;;;;;;24.15;7.15;;;;;;;20.50;65.49;93585.47;5103732;28;20086;-75
2022/05/28 14:24:20;;;;;;;16.08;5.63;;;;;;;20.45;67.62;93572.31;5103562;28;20051;-75
2022/05/28 14:26:52;;;;;;;14.30;6.78;;;;;;;20.40;70.04;93576.16;5103384;28;20076;-75
2022/05/28 14:29:20;;;;;;;21.40;5.55;;;;;;;20.16;68.81;93564.09;5103339;28;20015;-75
2022/05/28 14:31:47;;;;;;;17.10;5.60;;;;;;;20.05;68.05;93576.81;5103176;28;20036;-75
2022/05/28 14:34:16;;;;;;;17.35;6.93;;;;;;;20.06;69.33;93570.22;5103410;28;20012;-75
2022/05/28 14:36:52;;;;;;;15.77;5.93;;;;;;;20.14;68.61;93566.41;5103233;28;20322;-75
2022/05/28 14:39:18;;;;;;;18.30;5.18;;;;;;;20.16;64.88;93561.38;5102999;28;20031;-75
2022/05/28 14:42:01;;;;;;;10.07;5.38;;;;;;;20.23;65.74;93550.59;5103038;28;20044;-75
2022/05/28 14:44:28;;;;;;;14.98;4.65;;;;;;;20.33;63.80;93546.34;5103307;28;20028;-75
2022/05/28 14:46:54;;;;;;;16.95;5.18;;;;;;;20.49;67.57;93539.84;5103198;28;20251;-75
2022/05/28 14:49:30;;;;;;;21.20;8.10;;;;;;;20.66;70.33;93522.09;5102944;28;20046;-75
2022/05/28 14:51:59;;;;;;;22.77;10.32;;;;;;;20.76;70.26;93502.38;5103307;28;20096;-75
2022/05/28 14:54:35;;;;;;;25.85;10.15;;;;;;;20.92;69.30;93481.09;5103048;28;20134;-75
2022/05/28 14:57:04;;;;;;;22.30;6.85;;;;;;;21.04;66.26;93461.75;5103265;28;20020;-75
2022/05/28 14:59:34;;;;;;;17.90;6.20;;;;;;;21.16;64.60;93457.09;5102675;28;20026;-76
2022/05/28 15:02:10;;;;;;;19.80;6.72;;;;;;;21.27;65.88;93468.69;5103170;28;20024;-75
2022/05/28 15:04:36;;;;;;;19.98;7.22;;;;;;;21.35;67.42;93469.44;5103102;28;20028;-75
2022/05/28 15:07:05;;;;;;;22.90;7.65;;;;;;;21.36;67.40;93495.38;5101905;28;20034;-75
2022/05/28 15:09:36;;;;;;;28.75;10.90;;;;;;;21.35;67.04;93494.63;5101122;28;20004;-75
2022/05/28 15:12:04;;;;;;;19.42;7.13;;;;;;;21.42;68.36;93486.50;5100990;28;20068;-74
2022/05/28 15:14:31;;;;;;;21.02;6.97;;;;;;;21.40;68.14;93477.94;5100547;28;20028;-76
2022/05/28 15:16:57;;;;;;;32.67;8.75;;;;;;;21.46;68.00;93472.94;5100870;28;20024;-76
2022/05/28 15:19:22;;;;;;;19.90;8.05;;;;;;;21.57;69.03;93464.75;5101042;28;20292;-76
2022/05/28 15:21:49;;;;;;;28.40;8.93;;;;;;;21.67;68.79;93458.53;5101312;28;20085;-75
2022/05/28 15:24:16;;;;;;;27.30;8.57;;;;;;;21.76;68.78;93450.75;5102343;28;20195;-75
2022/05/28 15:26:41;;;;;;;20.08;8.13;;;;;;;21.77;68.58;93456.94;5102409;28;20016;-76
2022/05/28 15:29:09;;;;;;;24.90;9.00;;;;;;;21.76;69.56;93464.31;5102887;28;20032;-76
2022/05/28 15:31:35;;;;;;;33.78;9.63;;;;;;;21.79;69.19;93466.22;5105798;28;20214;-75
2022/05/28 15:34:01;;;;;;;29.23;8.80;;;;;;;21.90;69.80;93465.41;5106699;28;20051;-76
2022/05/28 15:39:13;;;;;;;21.55;9.10;;;;;;;22.06;68.79;93445.97;5106656;28;20031;-76
2022/05/28 15:41:39;;;;;;;25.58;9.45;;;;;;;22.11;68.74;93454.47;5106512;28;20059;-76
2022/05/28 15:44:08;;;;;;;17.50;7.38;;;;;;;22.20;68.49;93456.72;5106903;28;20035;-75
2022/05/28 15:46:34;;;;;;;19.30;8.30;;;;;;;22.30;68.02;93439.63;5106911;28;20034;-76
2022/05/28 15:48:59;;;;;;;27.55;9.55;;;;;;;22.41;68.00;93434.16;5106710;28;20020;-74
2022/05/28 15:51:25;;;;;;;25.45;8.43;;;;;;;22.54;66.24;93432.50;5106759;28;20340;-74
2022/05/28 15:53:53;;;;;;;18.73;6.80;;;;;;;22.66;64.56;93417.66;5105962;28;20322;-75
2022/05/28 15:56:19;;;;;;;19.20;6.93;;;;;;;22.78;63.73;93408.25;5106334;28;20048;-74
2022/05/28 15:58:45;;;;;;;19.13;6.43;;;;;;;22.80;64.04;93400.47;5106311;28;20023;-75
2022/05/28 16:01:17;;;;;;;18.02;6.07;;;;;;;22.86;63.98;93403.50;5106429;28;20168;-76
2022/05/28 16:03:42;;;;;;;26.63;6.60;;;;;;;22.86;63.59;93406.22;5106125;28;20087;-75
2022/05/28 16:06:10;;;;;;;19.95;7.80;;;;;;;22.84;63.50;93401.22;5106333;28;20024;-77
2022/05/28 16:09:34;;;;;;;17.45;5.53;;;;;;;22.76;62.19;93399.75;5104499;28;20047;-77
2022/05/28 16:11:58;;;;;;;16.15;5.43;;;;;;;22.66;61.17;93397.88;5105426;28;20114;-76
2022/05/28 16:14:30;;;;;;;17.52;5.97;;;;;;;22.60;60.08;93386.69;5105436;28;20024;-75
2022/05/28 16:16:59;;;;;;;15.48;5.93;;;;;;;22.58;59.68;93389.78;5104326;28;20020;-76
2022/05/28 16:19:26;;;;;;;17.02;6.20;;;;;;;22.63;59.35;93381.22;5104242;28;20027;-76
2022/05/28 16:21:51;;;;;;;19.33;5.75;;;;;;;22.61;60.19;93356.41;5104398;28;20344;-76
2022/05/28 16:24:17;;;;;;;20.48;5.40;;;;;;;22.59;58.24;93350.59;5104248;28;20020;-76
2022/05/28 16:26:43;;;;;;;18.83;4.93;;;;;;;22.49;56.80;93346.03;5104090;28;20054;-75
2022/05/28 16:29:11;;;;;;;21.38;7.35;;;;;;;22.49;55.31;93331.66;5104064;28;20023;-76
2022/05/28 16:31:37;;;;;;;14.70;5.35;;;;;;;22.50;53.80;93322.38;5105960;28;20252;-75
2022/05/28 16:34:03;;;;;;;11.43;4.97;;;;;;;22.51;52.03;93323.91;5105771;28;20257;-76
2022/05/28 16:36:28;;;;;;;21.88;5.40;;;;;;;22.55;51.40;93335.50;5105691;28;20038;-75
2022/05/28 16:38:54;;;;;;;17.40;6.18;;;;;;;22.58;51.84;93383.59;5105558;28;20036;-75
2022/05/28 16:41:23;;;;;;;17.75;5.07;;;;;;;22.47;53.66;93431.75;5105308;28;20094;-75
2022/05/28 16:43:49;;;;;;;17.15;6.57;;;;;;;21.91;60.65;93431.69;5104858;28;20305;-75
2022/05/28 16:46:14;;;;;;;18.40;6.85;;;;;;;21.58;63.70;93458.19;5105339;28;20314;-75
2022/05/28 16:48:40;;;;;;;24.10;6.78;;;;;;;21.15;65.17;93475.28;5105629;28;20027;-75
2022/05/28 16:51:05;;;;;;;14.57;6.38;;;;;;;20.95;66.64;93477.63;5105629;28;20105;-76
2022/05/28 16:53:33;;;;;;;21.35;7.30;;;;;;;20.88;66.27;93472.19;5105392;28;20069;-76
2022/05/28 16:55:59;;;;;;;17.80;6.78;;;;;;;20.64;64.65;93466.41;5105469;28;20222;-76
2022/05/28 16:58:24;;;;;;;19.75;7.60;;;;;;;20.62;64.95;93484.22;5105009;28;20227;-76
2022/05/28 17:00:50;;;;;;;25.77;6.65;;;;;;;20.53;66.31;93470.22;5105250;28;20031;-76
2022/05/28 17:03:16;;;;;;;14.02;6.25;;;;;;;20.49;65.30;93470.22;5104967;28;20024;-76
2022/05/28 17:05:43;;;;;;;27.83;8.98;;;;;;;20.45;65.38;93469.44;5105319;28;20100;-76
2022/05/28 17:08:08;;;;;;;21.02;7.72;;;;;;;20.43;64.87;93463.63;5105312;28;20242;-77
2022/05/28 17:10:34;;;;;;;19.85;7.85;;;;;;;20.32;66.07;93481.81;5105034;28;20026;-76
2022/05/28 17:13:00;;;;;;;22.02;6.75;;;;;;;20.24;65.33;93483.72;5104990;28;20051;-76
2022/05/28 17:15:25;;;;;;;23.77;7.35;;;;;;;20.17;63.76;93489.91;5104974;28;20024;-76
2022/05/28 17:17:52;;;;;;;19.90;7.53;;;;;;;20.12;65.04;93487.56;5104580;28;20020;-76
2022/05/28 17:20:18;;;;;;;26.88;6.75;;;;;;;20.13;66.28;93483.69;5104655;28;20304;-76
2022/05/28 17:22:45;;;;;;;14.60;6.43;;;;;;;20.14;64.81;93474.41;5104590;28;20028;-76
2022/05/28 17:25:17;;;;;;;15.45;6.18;;;;;;;20.16;65.55;93485.63;5104785;28;20019;-76
2022/05/28 17:27:43;;;;;;;18.30;6.45;;;;;;;20.19;67.86;93493.00;5104570;28;20094;-76
2022/05/28 17:30:09;;;;;;;21.60;6.55;;;;;;;20.21;67.01;93485.28;5104751;28;20023;-76
2022/05/28 17:32:35;;;;;;;15.35;6.68;;;;;;;20.22;67.09;93488.75;5104197;28;20264;-76
2022/05/28 17:35:05;;;;;;;32.28;7.53;;;;;;;20.24;67.57;93486.44;5104659;28;20024;-76
2022/05/28 17:37:34;;;;;;;19.65;7.20;;;;;;;20.30;65.74;93492.25;5104498;28;20102;-76
2022/05/28 17:40:06;;;;;;;26.48;8.07;;;;;;;20.26;63.27;93508.47;5104285;28;20040;-76
2022/05/28 17:42:32;;;;;;;21.33;7.70;;;;;;;20.25;62.73;93509.59;5104354;28;20153;-77